sensor_id;sensor_type;location;lat;lon;timestamp;temperature;humidity
52211;DHT22;38179;52.756;6.906;2024-02-04T00:02:09;7.80;99.90
52211;DHT22;38179;52.756;6.906;2024-02-04T00:04:39;7.80;99.90
52211;DHT22;38179;52.756;6.906;2024-02-04T00:07:06;7.80;99.90
52211;DHT22;38179;52.756;6.906;2024-02-04T00:09:31;7.70;99.90
52211;DHT22;38179;52.756;6.906;2024-02-04T00:11:57;7.70;99.90
52211;DHT22;38179;52.756;6.906;2024-02-04T00:14:24;7.70;99.90
52211;DHT22;38179;52.756;6.906;2024-02-04T00:16:49;7.70;99.90
52211;DHT22;38179;52.756;6.906;2024-02-04T00:19:15;7.70;99.90
52211;DHT22;38179;52.756;6.906;2024-02-04T00:21:41;7.70;99.90
52211;DHT22;38179;52.756;6.906;2024-02-04T00:24:06;7.70;99.90
52211;DHT22;38179;52.756;6.906;2024-02-04T00:26:32;7.70;99.90
52211;DHT22;38179;52.756;6.906;2024-02-04T00:28:58;7.60;99.90
52211;DHT22;38179;52.756;6.906;2024-02-04T00:31:23;7.60;99.90
52211;DHT22;38179;52.756;6.906;2024-02-04T00:33:49;7.60;99.90
52211;DHT22;38179;52.756;6.906;2024-02-04T00:36:15;7.50;99.90
52211;DHT22;38179;52.756;6.906;2024-02-04T00:38:40;7.50;99.90
52211;DHT22;38179;52.756;6.906;2024-02-04T00:41:06;7.50;99.90
52211;DHT22;38179;52.756;6.906;2024-02-04T00:43:32;7.50;99.90
52211;DHT22;38179;52.756;6.906;2024-02-04T00:45:57;7.50;99.90
52211;DHT22;38179;52.756;6.906;2024-02-04T00:48:25;7.50;99.90
52211;DHT22;38179;52.756;6.906;2024-02-04T00:50:51;7.50;99.90
52211;DHT22;38179;52.756;6.906;2024-02-04T00:53:16;7.50;99.90
52211;DHT22;38179;52.756;6.906;2024-02-04T00:55:42;7.50;99.90
52211;DHT22;38179;52.756;6.906;2024-02-04T00:58:08;7.40;99.90
52211;DHT22;38179;52.756;6.906;2024-02-04T01:00:33;7.50;99.90
52211;DHT22;38179;52.756;6.906;2024-02-04T01:02:59;7.50;99.90
52211;DHT22;38179;52.756;6.906;2024-02-04T01:05:25;7.50;99.90
52211;DHT22;38179;52.756;6.906;2024-02-04T01:07:50;7.40;99.90
52211;DHT22;38179;52.756;6.906;2024-02-04T01:10:16;7.40;99.90
52211;DHT22;38179;52.756;6.906;2024-02-04T01:12:42;7.40;99.90
52211;DHT22;38179;52.756;6.906;2024-02-04T01:15:08;7.30;99.90
52211;DHT22;38179;52.756;6.906;2024-02-04T01:17:33;7.30;99.90
52211;DHT22;38179;52.756;6.906;2024-02-04T01:19:59;7.30;99.90
52211;DHT22;38179;52.756;6.906;2024-02-04T01:22:25;7.30;99.90
52211;DHT22;38179;52.756;6.906;2024-02-04T01:24:51;7.30;99.90
52211;DHT22;38179;52.756;6.906;2024-02-04T01:27:17;7.20;99.90
52211;DHT22;38179;52.756;6.906;2024-02-04T01:29:43;7.30;99.90
52211;DHT22;38179;52.756;6.906;2024-02-04T01:32:08;7.30;99.90
52211;DHT22;38179;52.756;6.906;2024-02-04T01:34:34;7.20;99.90
52211;DHT22;38179;52.756;6.906;2024-02-04T01:37:00;7.30;99.90
52211;DHT22;38179;52.756;6.906;2024-02-04T01:39:25;7.30;99.90
52211;DHT22;38179;52.756;6.906;2024-02-04T01:41:51;7.30;99.90
52211;DHT22;38179;52.756;6.906;2024-02-04T01:44:16;7.30;99.90
52211;DHT22;38179;52.756;6.906;2024-02-04T01:46:44;7.40;99.90
52211;DHT22;38179;52.756;6.906;2024-02-04T01:49:10;7.40;99.90
52211;DHT22;38179;52.756;6.906;2024-02-04T01:51:36;7.40;99.90
52211;DHT22;38179;52.756;6.906;2024-02-04T01:54:03;7.40;99.90
52211;DHT22;38179;52.756;6.906;2024-02-04T01:56:30;7.40;99.90
52211;DHT22;38179;52.756;6.906;2024-02-04T01:58:56;7.40;99.90
52211;DHT22;38179;52.756;6.906;2024-02-04T02:01:22;7.40;99.90
52211;DHT22;38179;52.756;6.906;2024-02-04T02:03:48;7.30;99.90
52211;DHT22;38179;52.756;6.906;2024-02-04T02:06:16;7.30;99.90
52211;DHT22;38179;52.756;6.906;2024-02-04T02:08:42;7.30;99.90
52211;DHT22;38179;52.756;6.906;2024-02-04T02:11:21;7.20;99.90
52211;DHT22;38179;52.756;6.906;2024-02-04T02:13:57;7.20;99.90
52211;DHT22;38179;52.756;6.906;2024-02-04T02:16:23;7.10;99.90
52211;DHT22;38179;52.756;6.906;2024-02-04T02:18:52;7.10;99.90
52211;DHT22;38179;52.756;6.906;2024-02-04T02:26:47;7.00;99.90
52211;DHT22;38179;52.756;6.906;2024-02-04T02:29:14;7.10;99.90
52211;DHT22;38179;52.756;6.906;2024-02-04T02:31:41;7.00;99.90
52211;DHT22;38179;52.756;6.906;2024-02-04T02:34:08;7.00;99.90
52211;DHT22;38179;52.756;6.906;2024-02-04T02:36:52;7.00;99.90
52211;DHT22;38179;52.756;6.906;2024-02-04T02:39:27;7.00;99.90
52211;DHT22;38179;52.756;6.906;2024-02-04T02:41:57;7.00;99.90
52211;DHT22;38179;52.756;6.906;2024-02-04T02:44:26;7.00;99.90
52211;DHT22;38179;52.756;6.906;2024-02-04T02:46:54;7.00;99.90
52211;DHT22;38179;52.756;6.906;2024-02-04T02:49:20;7.00;99.90
52211;DHT22;38179;52.756;6.906;2024-02-04T02:51:45;6.90;99.90
52211;DHT22;38179;52.756;6.906;2024-02-04T02:54:11;6.90;99.90
52211;DHT22;38179;52.756;6.906;2024-02-04T02:56:37;6.90;99.90
52211;DHT22;38179;52.756;6.906;2024-02-04T02:59:03;7.00;99.90
52211;DHT22;38179;52.756;6.906;2024-02-04T03:01:30;7.00;99.90
52211;DHT22;38179;52.756;6.906;2024-02-04T03:03:55;7.00;99.90
52211;DHT22;38179;52.756;6.906;2024-02-04T03:06:21;6.90;99.90
52211;DHT22;38179;52.756;6.906;2024-02-04T03:08:47;7.00;99.90
52211;DHT22;38179;52.756;6.906;2024-02-04T03:11:13;7.00;99.90
52211;DHT22;38179;52.756;6.906;2024-02-04T03:13:39;7.00;99.90
52211;DHT22;38179;52.756;6.906;2024-02-04T03:16:11;7.00;99.90
52211;DHT22;38179;52.756;6.906;2024-02-04T03:18:41;7.00;99.90
52211;DHT22;38179;52.756;6.906;2024-02-04T03:21:17;7.00;99.90
52211;DHT22;38179;52.756;6.906;2024-02-04T03:23:43;7.00;99.90
52211;DHT22;38179;52.756;6.906;2024-02-04T03:26:10;7.20;99.90
52211;DHT22;38179;52.756;6.906;2024-02-04T03:28:36;7.00;99.90
52211;DHT22;38179;52.756;6.906;2024-02-04T03:31:02;7.00;99.90
52211;DHT22;38179;52.756;6.906;2024-02-04T03:33:28;6.90;99.90
52211;DHT22;38179;52.756;6.906;2024-02-04T03:35:54;7.00;99.90
52211;DHT22;38179;52.756;6.906;2024-02-04T03:38:19;6.90;99.90
52211;DHT22;38179;52.756;6.906;2024-02-04T03:40:46;7.00;99.90
52211;DHT22;38179;52.756;6.906;2024-02-04T03:43:11;6.80;99.90
52211;DHT22;38179;52.756;6.906;2024-02-04T03:45:37;6.90;99.90
52211;DHT22;38179;52.756;6.906;2024-02-04T03:48:03;6.80;99.90
52211;DHT22;38179;52.756;6.906;2024-02-04T03:50:29;6.80;99.90
52211;DHT22;38179;52.756;6.906;2024-02-04T03:52:55;6.90;99.90
52211;DHT22;38179;52.756;6.906;2024-02-04T03:55:20;6.80;99.90
52211;DHT22;38179;52.756;6.906;2024-02-04T03:57:47;6.70;99.90
52211;DHT22;38179;52.756;6.906;2024-02-04T04:00:13;6.70;99.90
52211;DHT22;38179;52.756;6.906;2024-02-04T04:02:39;6.70;99.90
52211;DHT22;38179;52.756;6.906;2024-02-04T04:05:05;6.70;99.90
52211;DHT22;38179;52.756;6.906;2024-02-04T04:07:31;6.70;99.90
52211;DHT22;38179;52.756;6.906;2024-02-04T04:09:57;6.70;99.90
52211;DHT22;38179;52.756;6.906;2024-02-04T04:12:22;6.70;99.90
52211;DHT22;38179;52.756;6.906;2024-02-04T04:14:48;6.70;99.90
52211;DHT22;38179;52.756;6.906;2024-02-04T04:17:13;6.60;99.90
52211;DHT22;38179;52.756;6.906;2024-02-04T04:19:39;6.60;99.90
52211;DHT22;38179;52.756;6.906;2024-02-04T04:22:05;6.60;99.90
52211;DHT22;38179;52.756;6.906;2024-02-04T04:24:31;6.60;99.90
52211;DHT22;38179;52.756;6.906;2024-02-04T04:26:56;6.60;99.90
52211;DHT22;38179;52.756;6.906;2024-02-04T04:29:22;6.60;99.90
52211;DHT22;38179;52.756;6.906;2024-02-04T04:31:48;6.60;99.90
52211;DHT22;38179;52.756;6.906;2024-02-04T04:34:14;6.60;99.90
52211;DHT22;38179;52.756;6.906;2024-02-04T04:36:39;6.60;99.90
52211;DHT22;38179;52.756;6.906;2024-02-04T04:39:05;6.60;99.90
52211;DHT22;38179;52.756;6.906;2024-02-04T04:41:30;6.50;99.90
52211;DHT22;38179;52.756;6.906;2024-02-04T04:43:56;6.50;99.90
52211;DHT22;38179;52.756;6.906;2024-02-04T04:46:22;6.50;99.90
52211;DHT22;38179;52.756;6.906;2024-02-04T04:48:47;6.50;99.90
52211;DHT22;38179;52.756;6.906;2024-02-04T04:51:13;6.50;99.90
52211;DHT22;38179;52.756;6.906;2024-02-04T04:53:39;6.60;99.90
52211;DHT22;38179;52.756;6.906;2024-02-04T04:56:05;6.50;99.90
52211;DHT22;38179;52.756;6.906;2024-02-04T04:58:31;6.50;99.90
52211;DHT22;38179;52.756;6.906;2024-02-04T05:00:56;6.50;99.90
52211;DHT22;38179;52.756;6.906;2024-02-04T05:03:22;6.50;99.90
52211;DHT22;38179;52.756;6.906;2024-02-04T05:05:47;6.50;99.90
52211;DHT22;38179;52.756;6.906;2024-02-04T05:08:14;6.50;99.90
52211;DHT22;38179;52.756;6.906;2024-02-04T05:10:40;6.50;99.90
52211;DHT22;38179;52.756;6.906;2024-02-04T05:13:07;6.50;99.90
52211;DHT22;38179;52.756;6.906;2024-02-04T05:15:33;6.50;99.90
52211;DHT22;38179;52.756;6.906;2024-02-04T05:18:02;6.40;99.90
52211;DHT22;38179;52.756;6.906;2024-02-04T05:20:28;6.50;99.90
52211;DHT22;38179;52.756;6.906;2024-02-04T05:22:54;6.50;99.90
52211;DHT22;38179;52.756;6.906;2024-02-04T05:25:20;6.50;99.90
52211;DHT22;38179;52.756;6.906;2024-02-04T05:27:46;6.50;99.90
52211;DHT22;38179;52.756;6.906;2024-02-04T05:30:12;6.50;99.90
52211;DHT22;38179;52.756;6.906;2024-02-04T05:32:38;6.50;99.90
52211;DHT22;38179;52.756;6.906;2024-02-04T05:35:04;6.50;99.90
52211;DHT22;38179;52.756;6.906;2024-02-04T05:37:30;6.50;99.90
52211;DHT22;38179;52.756;6.906;2024-02-04T05:39:55;6.60;99.90
52211;DHT22;38179;52.756;6.906;2024-02-04T05:42:21;6.60;99.90
52211;DHT22;38179;52.756;6.906;2024-02-04T05:44:47;6.60;99.90
52211;DHT22;38179;52.756;6.906;2024-02-04T05:47:12;6.70;99.90
52211;DHT22;38179;52.756;6.906;2024-02-04T05:49:38;6.60;99.90
52211;DHT22;38179;52.756;6.906;2024-02-04T05:52:04;6.60;99.90
52211;DHT22;38179;52.756;6.906;2024-02-04T05:54:30;6.60;99.90
52211;DHT22;38179;52.756;6.906;2024-02-04T05:56:55;6.70;99.90
52211;DHT22;38179;52.756;6.906;2024-02-04T05:59:21;6.60;99.90
52211;DHT22;38179;52.756;6.906;2024-02-04T06:01:47;6.60;99.90
52211;DHT22;38179;52.756;6.906;2024-02-04T06:04:12;6.70;99.90
52211;DHT22;38179;52.756;6.906;2024-02-04T06:06:38;6.60;99.90
52211;DHT22;38179;52.756;6.906;2024-02-04T06:09:04;6.70;99.90
52211;DHT22;38179;52.756;6.906;2024-02-04T06:11:30;6.70;99.90
52211;DHT22;38179;52.756;6.906;2024-02-04T06:13:55;6.70;99.90
52211;DHT22;38179;52.756;6.906;2024-02-04T06:16:21;6.70;99.90
52211;DHT22;38179;52.756;6.906;2024-02-04T06:18:46;6.70;99.90
52211;DHT22;38179;52.756;6.906;2024-02-04T06:21:12;6.70;99.90
52211;DHT22;38179;52.756;6.906;2024-02-04T06:23:38;6.70;99.90
52211;DHT22;38179;52.756;6.906;2024-02-04T06:26:05;6.70;99.90
52211;DHT22;38179;52.756;6.906;2024-02-04T06:28:31;6.70;99.90
52211;DHT22;38179;52.756;6.906;2024-02-04T06:30:57;6.70;99.90
52211;DHT22;38179;52.756;6.906;2024-02-04T06:33:23;6.70;99.90
52211;DHT22;38179;52.756;6.906;2024-02-04T06:35:50;6.80;99.90
52211;DHT22;38179;52.756;6.906;2024-02-04T06:38:16;6.80;99.90
52211;DHT22;38179;52.756;6.906;2024-02-04T06:40:42;6.80;99.90
52211;DHT22;38179;52.756;6.906;2024-02-04T06:43:07;6.80;99.90
52211;DHT22;38179;52.756;6.906;2024-02-04T06:45:33;6.80;99.90
52211;DHT22;38179;52.756;6.906;2024-02-04T06:47:59;6.80;99.90
52211;DHT22;38179;52.756;6.906;2024-02-04T06:50:25;6.80;99.90
52211;DHT22;38179;52.756;6.906;2024-02-04T06:52:50;6.80;99.90
52211;DHT22;38179;52.756;6.906;2024-02-04T06:55:16;6.80;99.90
52211;DHT22;38179;52.756;6.906;2024-02-04T06:57:42;6.80;99.90
52211;DHT22;38179;52.756;6.906;2024-02-04T07:00:08;6.90;99.90
52211;DHT22;38179;52.756;6.906;2024-02-04T07:02:34;6.80;99.90
52211;DHT22;38179;52.756;6.906;2024-02-04T07:05:00;6.80;99.90
52211;DHT22;38179;52.756;6.906;2024-02-04T07:07:26;6.90;99.90
52211;DHT22;38179;52.756;6.906;2024-02-04T07:09:52;6.90;99.90
52211;DHT22;38179;52.756;6.906;2024-02-04T07:12:17;6.90;99.90
52211;DHT22;38179;52.756;6.906;2024-02-04T07:14:43;6.80;99.90
52211;DHT22;38179;52.756;6.906;2024-02-04T07:17:09;6.90;99.90
52211;DHT22;38179;52.756;6.906;2024-02-04T07:19:35;6.90;99.90
52211;DHT22;38179;52.756;6.906;2024-02-04T07:22:01;6.90;99.90
52211;DHT22;38179;52.756;6.906;2024-02-04T07:24:27;6.90;99.90
52211;DHT22;38179;52.756;6.906;2024-02-04T07:26:52;6.90;99.90
52211;DHT22;38179;52.756;6.906;2024-02-04T07:29:19;7.00;99.90
52211;DHT22;38179;52.756;6.906;2024-02-04T07:31:44;6.90;99.90
52211;DHT22;38179;52.756;6.906;2024-02-04T07:34:10;6.90;99.90
52211;DHT22;38179;52.756;6.906;2024-02-04T07:36:35;7.10;99.90
52211;DHT22;38179;52.756;6.906;2024-02-04T07:39:01;6.90;99.90
52211;DHT22;38179;52.756;6.906;2024-02-04T07:41:30;6.90;99.90
52211;DHT22;38179;52.756;6.906;2024-02-04T07:43:56;6.90;99.90
52211;DHT22;38179;52.756;6.906;2024-02-04T07:46:21;6.90;99.90
52211;DHT22;38179;52.756;6.906;2024-02-04T07:48:47;6.90;99.90
52211;DHT22;38179;52.756;6.906;2024-02-04T07:51:13;6.90;99.90
52211;DHT22;38179;52.756;6.906;2024-02-04T07:53:38;6.90;99.90
52211;DHT22;38179;52.756;6.906;2024-02-04T07:56:04;6.90;99.90
52211;DHT22;38179;52.756;6.906;2024-02-04T07:58:32;7.00;99.90
52211;DHT22;38179;52.756;6.906;2024-02-04T08:00:58;7.00;99.90
52211;DHT22;38179;52.756;6.906;2024-02-04T08:03:24;7.00;99.90
52211;DHT22;38179;52.756;6.906;2024-02-04T08:05:49;7.00;99.90
52211;DHT22;38179;52.756;6.906;2024-02-04T08:08:15;7.00;99.90
52211;DHT22;38179;52.756;6.906;2024-02-04T08:10:41;7.00;99.90
52211;DHT22;38179;52.756;6.906;2024-02-04T08:13:07;7.10;99.90
52211;DHT22;38179;52.756;6.906;2024-02-04T08:15:32;7.00;99.90
52211;DHT22;38179;52.756;6.906;2024-02-04T08:17:58;7.20;99.90
52211;DHT22;38179;52.756;6.906;2024-02-04T08:20:24;7.10;99.90
52211;DHT22;38179;52.756;6.906;2024-02-04T08:22:49;7.10;99.90
52211;DHT22;38179;52.756;6.906;2024-02-04T08:25:15;7.10;99.90
52211;DHT22;38179;52.756;6.906;2024-02-04T08:27:41;7.20;99.90
52211;DHT22;38179;52.756;6.906;2024-02-04T08:30:07;7.20;99.90
52211;DHT22;38179;52.756;6.906;2024-02-04T08:32:33;7.20;99.90
52211;DHT22;38179;52.756;6.906;2024-02-04T08:34:58;7.30;99.90
52211;DHT22;38179;52.756;6.906;2024-02-04T08:37:24;7.20;99.90
52211;DHT22;38179;52.756;6.906;2024-02-04T08:39:49;7.20;99.90
52211;DHT22;38179;52.756;6.906;2024-02-04T08:42:15;7.30;99.90
52211;DHT22;38179;52.756;6.906;2024-02-04T08:44:41;7.40;99.90
52211;DHT22;38179;52.756;6.906;2024-02-04T08:47:07;7.30;99.90
52211;DHT22;38179;52.756;6.906;2024-02-04T08:49:38;7.40;99.90
52211;DHT22;38179;52.756;6.906;2024-02-04T08:52:03;7.30;99.90
52211;DHT22;38179;52.756;6.906;2024-02-04T08:54:29;7.40;99.90
52211;DHT22;38179;52.756;6.906;2024-02-04T08:56:55;7.50;99.90
52211;DHT22;38179;52.756;6.906;2024-02-04T08:59:20;7.40;99.90
52211;DHT22;38179;52.756;6.906;2024-02-04T09:01:46;7.50;99.90
52211;DHT22;38179;52.756;6.906;2024-02-04T09:04:12;7.50;99.90
52211;DHT22;38179;52.756;6.906;2024-02-04T09:06:37;7.50;99.90
52211;DHT22;38179;52.756;6.906;2024-02-04T09:09:03;7.60;99.90
52211;DHT22;38179;52.756;6.906;2024-02-04T09:11:29;7.60;99.90
52211;DHT22;38179;52.756;6.906;2024-02-04T09:13:55;7.70;99.90
52211;DHT22;38179;52.756;6.906;2024-02-04T09:16:20;7.90;99.90
52211;DHT22;38179;52.756;6.906;2024-02-04T09:18:46;7.80;99.90
52211;DHT22;38179;52.756;6.906;2024-02-04T09:21:13;7.80;99.90
52211;DHT22;38179;52.756;6.906;2024-02-04T09:23:39;7.80;99.90
52211;DHT22;38179;52.756;6.906;2024-02-04T09:26:05;7.80;99.90
52211;DHT22;38179;52.756;6.906;2024-02-04T09:28:30;7.90;99.90
52211;DHT22;38179;52.756;6.906;2024-02-04T09:30:56;7.90;99.90
52211;DHT22;38179;52.756;6.906;2024-02-04T09:33:21;7.90;99.90
52211;DHT22;38179;52.756;6.906;2024-02-04T09:35:48;8.00;99.90
52211;DHT22;38179;52.756;6.906;2024-02-04T09:38:14;8.00;99.90
52211;DHT22;38179;52.756;6.906;2024-02-04T09:40:41;8.10;99.90
52211;DHT22;38179;52.756;6.906;2024-02-04T09:43:06;8.00;99.90
52211;DHT22;38179;52.756;6.906;2024-02-04T09:45:33;8.10;99.90
52211;DHT22;38179;52.756;6.906;2024-02-04T09:48:01;8.10;99.90
52211;DHT22;38179;52.756;6.906;2024-02-04T09:50:27;8.10;99.90
52211;DHT22;38179;52.756;6.906;2024-02-04T09:52:58;8.10;99.90
52211;DHT22;38179;52.756;6.906;2024-02-04T09:55:24;8.10;99.90
52211;DHT22;38179;52.756;6.906;2024-02-04T09:57:50;8.20;99.90
52211;DHT22;38179;52.756;6.906;2024-02-04T10:00:19;8.20;99.90
52211;DHT22;38179;52.756;6.906;2024-02-04T10:02:45;8.20;99.90
52211;DHT22;38179;52.756;6.906;2024-02-04T10:05:12;8.30;99.90
52211;DHT22;38179;52.756;6.906;2024-02-04T10:07:38;8.30;99.90
52211;DHT22;38179;52.756;6.906;2024-02-04T10:10:05;8.30;99.90
52211;DHT22;38179;52.756;6.906;2024-02-04T10:12:31;8.30;99.90
52211;DHT22;38179;52.756;6.906;2024-02-04T10:14:59;8.40;99.90
52211;DHT22;38179;52.756;6.906;2024-02-04T10:17:25;8.40;99.90
52211;DHT22;38179;52.756;6.906;2024-02-04T10:19:51;8.50;99.90
52211;DHT22;38179;52.756;6.906;2024-02-04T10:22:16;8.50;99.90
52211;DHT22;38179;52.756;6.906;2024-02-04T10:24:43;8.60;99.90
52211;DHT22;38179;52.756;6.906;2024-02-04T10:27:10;8.60;99.90
52211;DHT22;38179;52.756;6.906;2024-02-04T10:29:36;8.70;99.90
52211;DHT22;38179;52.756;6.906;2024-02-04T10:32:02;8.70;99.90
52211;DHT22;38179;52.756;6.906;2024-02-04T10:34:28;8.80;99.90
52211;DHT22;38179;52.756;6.906;2024-02-04T10:36:57;8.80;99.90
52211;DHT22;38179;52.756;6.906;2024-02-04T10:39:23;8.80;99.90
52211;DHT22;38179;52.756;6.906;2024-02-04T10:41:52;8.80;99.90
52211;DHT22;38179;52.756;6.906;2024-02-04T10:44:22;8.80;99.90
52211;DHT22;38179;52.756;6.906;2024-02-04T10:46:50;8.80;99.90
52211;DHT22;38179;52.756;6.906;2024-02-04T10:49:17;8.70;99.90
52211;DHT22;38179;52.756;6.906;2024-02-04T10:51:45;8.70;99.90
52211;DHT22;38179;52.756;6.906;2024-02-04T10:54:14;8.80;99.90
52211;DHT22;38179;52.756;6.906;2024-02-04T10:56:45;8.80;99.90
52211;DHT22;38179;52.756;6.906;2024-02-04T10:59:14;8.80;99.90
52211;DHT22;38179;52.756;6.906;2024-02-04T11:01:43;8.80;99.90
52211;DHT22;38179;52.756;6.906;2024-02-04T11:04:10;8.80;99.90
52211;DHT22;38179;52.756;6.906;2024-02-04T11:06:38;8.80;99.90
52211;DHT22;38179;52.756;6.906;2024-02-04T11:09:06;8.80;99.90
52211;DHT22;38179;52.756;6.906;2024-02-04T11:11:34;8.80;99.90
52211;DHT22;38179;52.756;6.906;2024-02-04T11:14:05;8.80;99.90
52211;DHT22;38179;52.756;6.906;2024-02-04T11:19:11;8.70;99.90
52211;DHT22;38179;52.756;6.906;2024-02-04T11:24:30;8.60;99.90
52211;DHT22;38179;52.756;6.906;2024-02-04T11:26:58;8.60;99.90
52211;DHT22;38179;52.756;6.906;2024-02-04T11:29:24;8.50;99.90
52211;DHT22;38179;52.756;6.906;2024-02-04T11:31:51;8.50;99.90
52211;DHT22;38179;52.756;6.906;2024-02-04T11:34:17;8.50;99.90
52211;DHT22;38179;52.756;6.906;2024-02-04T11:36:42;8.50;99.90
52211;DHT22;38179;52.756;6.906;2024-02-04T11:39:17;8.50;99.90
52211;DHT22;38179;52.756;6.906;2024-02-04T11:41:47;8.60;99.90
52211;DHT22;38179;52.756;6.906;2024-02-04T11:44:23;8.60;99.90
52211;DHT22;38179;52.756;6.906;2024-02-04T11:46:50;8.60;99.90
52211;DHT22;38179;52.756;6.906;2024-02-04T11:49:19;8.60;99.90
52211;DHT22;38179;52.756;6.906;2024-02-04T11:51:48;8.60;99.90
52211;DHT22;38179;52.756;6.906;2024-02-04T11:54:17;8.60;99.90
52211;DHT22;38179;52.756;6.906;2024-02-04T11:56:45;8.60;99.90
52211;DHT22;38179;52.756;6.906;2024-02-04T11:59:12;8.70;99.90
52211;DHT22;38179;52.756;6.906;2024-02-04T12:01:39;8.70;99.90
52211;DHT22;38179;52.756;6.906;2024-02-04T12:04:24;8.70;99.90
52211;DHT22;38179;52.756;6.906;2024-02-04T12:06:53;8.70;99.90
52211;DHT22;38179;52.756;6.906;2024-02-04T12:09:19;8.70;99.90
52211;DHT22;38179;52.756;6.906;2024-02-04T12:11:45;8.70;99.90
52211;DHT22;38179;52.756;6.906;2024-02-04T12:14:10;8.70;99.90
52211;DHT22;38179;52.756;6.906;2024-02-04T12:16:36;8.80;99.90
52211;DHT22;38179;52.756;6.906;2024-02-04T12:19:03;8.80;99.90
52211;DHT22;38179;52.756;6.906;2024-02-04T12:21:30;8.80;99.90
52211;DHT22;38179;52.756;6.906;2024-02-04T12:23:56;8.80;99.90
52211;DHT22;38179;52.756;6.906;2024-02-04T12:26:22;8.90;99.90
52211;DHT22;38179;52.756;6.906;2024-02-04T12:28:49;8.90;99.90
52211;DHT22;38179;52.756;6.906;2024-02-04T12:31:19;8.90;99.90
52211;DHT22;38179;52.756;6.906;2024-02-04T12:33:56;8.90;99.90
52211;DHT22;38179;52.756;6.906;2024-02-04T12:36:28;9.00;99.90
52211;DHT22;38179;52.756;6.906;2024-02-04T12:39:00;9.00;99.90
52211;DHT22;38179;52.756;6.906;2024-02-04T12:41:27;9.00;99.90
52211;DHT22;38179;52.756;6.906;2024-02-04T12:43:54;9.00;99.90
52211;DHT22;38179;52.756;6.906;2024-02-04T12:46:21;9.10;99.90
52211;DHT22;38179;52.756;6.906;2024-02-04T12:48:55;9.10;99.90
52211;DHT22;38179;52.756;6.906;2024-02-04T12:51:28;9.00;99.90
52211;DHT22;38179;52.756;6.906;2024-02-04T12:54:10;9.00;99.90
52211;DHT22;38179;52.756;6.906;2024-02-04T12:56:44;9.00;99.90
52211;DHT22;38179;52.756;6.906;2024-02-04T12:59:10;9.00;99.90
52211;DHT22;38179;52.756;6.906;2024-02-04T13:01:37;9.00;99.90
52211;DHT22;38179;52.756;6.906;2024-02-04T13:04:03;9.00;99.90
52211;DHT22;38179;52.756;6.906;2024-02-04T13:06:30;8.90;99.90
52211;DHT22;38179;52.756;6.906;2024-02-04T13:08:56;8.90;99.90
52211;DHT22;38179;52.756;6.906;2024-02-04T13:11:25;8.90;99.90
52211;DHT22;38179;52.756;6.906;2024-02-04T13:13:52;8.90;99.90
52211;DHT22;38179;52.756;6.906;2024-02-04T13:16:19;8.90;99.90
52211;DHT22;38179;52.756;6.906;2024-02-04T13:18:53;8.90;99.90
52211;DHT22;38179;52.756;6.906;2024-02-04T13:21:19;8.90;99.90
52211;DHT22;38179;52.756;6.906;2024-02-04T13:23:48;8.90;99.90
52211;DHT22;38179;52.756;6.906;2024-02-04T13:26:14;8.90;99.90
52211;DHT22;38179;52.756;6.906;2024-02-04T13:28:40;8.90;99.90
52211;DHT22;38179;52.756;6.906;2024-02-04T13:31:06;8.90;99.90
52211;DHT22;38179;52.756;6.906;2024-02-04T13:33:32;8.90;99.90
52211;DHT22;38179;52.756;6.906;2024-02-04T13:35:58;8.90;99.90
52211;DHT22;38179;52.756;6.906;2024-02-04T13:38:24;8.90;99.90
52211;DHT22;38179;52.756;6.906;2024-02-04T13:40:50;8.90;99.90
52211;DHT22;38179;52.756;6.906;2024-02-04T13:43:16;8.80;99.90
52211;DHT22;38179;52.756;6.906;2024-02-04T13:45:42;8.80;99.90
52211;DHT22;38179;52.756;6.906;2024-02-04T13:48:07;8.80;99.90
52211;DHT22;38179;52.756;6.906;2024-02-04T13:50:33;8.90;99.90
52211;DHT22;38179;52.756;6.906;2024-02-04T13:53:01;8.80;99.90
52211;DHT22;38179;52.756;6.906;2024-02-04T13:55:26;8.90;99.90
52211;DHT22;38179;52.756;6.906;2024-02-04T13:57:52;8.90;99.90
52211;DHT22;38179;52.756;6.906;2024-02-04T14:00:18;8.90;99.90
52211;DHT22;38179;52.756;6.906;2024-02-04T14:02:43;8.90;99.90
52211;DHT22;38179;52.756;6.906;2024-02-04T14:05:09;8.80;99.90
52211;DHT22;38179;52.756;6.906;2024-02-04T14:07:36;8.90;99.90
52211;DHT22;38179;52.756;6.906;2024-02-04T14:10:02;8.80;99.90
52211;DHT22;38179;52.756;6.906;2024-02-04T14:12:28;8.90;99.90
52211;DHT22;38179;52.756;6.906;2024-02-04T14:14:54;8.80;99.90
52211;DHT22;38179;52.756;6.906;2024-02-04T14:17:20;8.90;99.90
52211;DHT22;38179;52.756;6.906;2024-02-04T14:19:46;8.90;99.90
52211;DHT22;38179;52.756;6.906;2024-02-04T14:22:15;8.90;99.90
52211;DHT22;38179;52.756;6.906;2024-02-04T14:24:42;8.80;99.90
52211;DHT22;38179;52.756;6.906;2024-02-04T14:27:07;8.80;99.90
52211;DHT22;38179;52.756;6.906;2024-02-04T14:29:34;8.90;99.90
52211;DHT22;38179;52.756;6.906;2024-02-04T14:31:59;8.90;99.90
52211;DHT22;38179;52.756;6.906;2024-02-04T14:34:25;8.90;99.90
52211;DHT22;38179;52.756;6.906;2024-02-04T14:36:52;8.80;99.90
52211;DHT22;38179;52.756;6.906;2024-02-04T14:39:18;8.80;99.90
52211;DHT22;38179;52.756;6.906;2024-02-04T14:41:44;8.80;99.90
52211;DHT22;38179;52.756;6.906;2024-02-04T14:44:09;8.80;99.90
52211;DHT22;38179;52.756;6.906;2024-02-04T14:46:39;8.80;99.90
52211;DHT22;38179;52.756;6.906;2024-02-04T14:49:05;8.70;99.90
52211;DHT22;38179;52.756;6.906;2024-02-04T14:51:31;8.70;99.90
52211;DHT22;38179;52.756;6.906;2024-02-04T14:53:57;8.70;99.90
52211;DHT22;38179;52.756;6.906;2024-02-04T14:56:23;8.70;99.90
52211;DHT22;38179;52.756;6.906;2024-02-04T14:58:49;8.70;99.90
52211;DHT22;38179;52.756;6.906;2024-02-04T15:01:15;8.70;99.90
52211;DHT22;38179;52.756;6.906;2024-02-04T15:03:41;8.70;99.90
52211;DHT22;38179;52.756;6.906;2024-02-04T15:06:06;8.70;99.90
52211;DHT22;38179;52.756;6.906;2024-02-04T15:08:32;8.70;99.90
52211;DHT22;38179;52.756;6.906;2024-02-04T15:10:58;8.70;99.90
52211;DHT22;38179;52.756;6.906;2024-02-04T15:13:25;8.60;99.90
52211;DHT22;38179;52.756;6.906;2024-02-04T15:15:51;8.60;99.90
52211;DHT22;38179;52.756;6.906;2024-02-04T15:18:17;8.60;99.90
52211;DHT22;38179;52.756;6.906;2024-02-04T15:20:43;8.60;99.90
52211;DHT22;38179;52.756;6.906;2024-02-04T15:23:09;8.60;99.90
52211;DHT22;38179;52.756;6.906;2024-02-04T15:25:35;8.50;99.90
52211;DHT22;38179;52.756;6.906;2024-02-04T15:28:01;8.60;99.90
52211;DHT22;38179;52.756;6.906;2024-02-04T15:30:30;8.50;99.90
52211;DHT22;38179;52.756;6.906;2024-02-04T15:32:57;8.50;99.90
52211;DHT22;38179;52.756;6.906;2024-02-04T15:35:23;8.50;99.90
52211;DHT22;38179;52.756;6.906;2024-02-04T15:37:49;8.50;99.90
52211;DHT22;38179;52.756;6.906;2024-02-04T15:40:15;8.50;99.90
52211;DHT22;38179;52.756;6.906;2024-02-04T15:42:41;8.50;99.90
52211;DHT22;38179;52.756;6.906;2024-02-04T15:45:07;8.50;99.90
52211;DHT22;38179;52.756;6.906;2024-02-04T15:47:38;8.50;99.90
52211;DHT22;38179;52.756;6.906;2024-02-04T15:50:06;8.50;99.90
52211;DHT22;38179;52.756;6.906;2024-02-04T15:52:32;8.60;99.90